createdAt,value
2018-10-04T00:00:17.885Z,79.50
2018-10-04T00:02:22.382Z,79.60
2018-10-04T00:04:25.646Z,79.60
2018-10-04T00:06:28.632Z,79.20
2018-10-04T00:08:31.653Z,79.20
2018-10-04T00:10:34.688Z,79.20
2018-10-04T00:12:37.632Z,79.50
2018-10-04T00:14:40.631Z,79.30
2018-10-04T00:16:43.647Z,79.80
2018-10-04T00:18:46.619Z,79.80
2018-10-04T00:20:49.641Z,79.90
2018-10-04T00:22:53.890Z,79.40
2018-10-04T00:24:56.888Z,79.70
2018-10-04T00:27:00.038Z,79.70
2018-10-04T00:29:03.062Z,80.10
2018-10-04T00:31:06.241Z,80.30
2018-10-04T00:33:09.328Z,80.30
2018-10-04T00:35:12.336Z,80.70
2018-10-04T00:37:15.328Z,80.90
2018-10-04T00:39:18.374Z,81.10
2018-10-04T00:41:22.540Z,81.30
2018-10-04T00:43:25.571Z,81.30
2018-10-04T00:45:28.569Z,81.20
2018-10-04T00:47:31.553Z,81.40
2018-10-04T00:49:34.589Z,81.60
2018-10-04T00:51:37.595Z,81.70
2018-10-04T00:53:40.957Z,81.80
2018-10-04T00:55:43.933Z,81.90
2018-10-04T00:57:46.916Z,82.20
2018-10-04T00:59:50.151Z,82.00
2018-10-04T01:01:55.103Z,81.80
2018-10-04T01:03:58.143Z,81.30
2018-10-04T01:06:01.176Z,81.50
2018-10-04T01:08:04.193Z,81.60
2018-10-04T01:10:08.538Z,81.30
2018-10-04T01:12:11.579Z,81.30
2018-10-04T01:14:14.594Z,81.10
2018-10-04T01:16:17.603Z,80.70
2018-10-04T01:18:37.683Z,80.90
2018-10-04T01:20:40.732Z,80.50
2018-10-04T01:22:43.715Z,80.30
2018-10-04T01:24:46.870Z,80.10
2018-10-04T01:26:49.917Z,80.20
2018-10-04T01:28:54.466Z,79.90
2018-10-04T01:30:57.727Z,79.80
2018-10-04T01:33:01.308Z,80.20
2018-10-04T01:35:04.371Z,80.80
2018-10-04T01:37:07.763Z,80.80
2018-10-04T01:39:10.741Z,81.40
2018-10-04T01:41:13.743Z,81.70
2018-10-04T01:43:17.196Z,82.30
2018-10-04T01:45:20.268Z,82.70
2018-10-04T01:47:24.496Z,83.10
2018-10-04T01:49:27.807Z,83.10
2018-10-04T01:51:30.801Z,83.60
2018-10-04T01:53:33.808Z,83.90
2018-10-04T01:55:36.956Z,84.30
2018-10-04T01:57:39.947Z,83.90
2018-10-04T01:59:42.965Z,84.50
2018-10-04T02:01:54.372Z,84.70
2018-10-04T02:03:57.384Z,84.70
2018-10-04T02:06:00.444Z,84.90
2018-10-04T02:08:03.436Z,84.80
2018-10-04T02:10:06.485Z,85.10
2018-10-04T02:12:09.767Z,85.10
2018-10-04T02:14:12.731Z,85.10
2018-10-04T02:16:15.713Z,85.10
2018-10-04T02:18:18.718Z,85.20
2018-10-04T02:20:23.520Z,85.00
2018-10-04T02:22:26.712Z,85.10
2018-10-04T02:24:29.728Z,85.10
2018-10-04T02:26:32.750Z,85.10
2018-10-04T02:28:35.779Z,85.10
2018-10-04T02:30:38.763Z,85.10
2018-10-04T02:32:41.757Z,84.80
2018-10-04T02:34:44.789Z,84.90
2018-10-04T02:36:47.880Z,84.70
2018-10-04T02:38:52.026Z,84.60
2018-10-04T02:40:55.041Z,84.50
2018-10-04T02:42:58.053Z,84.40
2018-10-04T02:45:01.137Z,84.50
2018-10-04T02:47:04.291Z,84.60
2018-10-04T02:49:07.321Z,84.60
2018-10-04T02:51:10.339Z,84.60
2018-10-04T02:53:13.331Z,84.90
2018-10-04T02:55:22.701Z,84.90
2018-10-04T02:57:25.671Z,84.70
2018-10-04T02:59:28.696Z,84.80
2018-10-04T03:01:31.828Z,85.30
2018-10-04T03:03:34.790Z,84.60
2018-10-04T03:05:37.809Z,84.90
2018-10-04T03:07:40.782Z,85.00
2018-10-04T03:09:43.759Z,85.10
2018-10-04T03:11:46.984Z,84.80
2018-10-04T03:13:49.974Z,85.00
2018-10-04T03:15:55.236Z,85.10
2018-10-04T03:17:58.236Z,85.20
2018-10-04T03:20:01.258Z,84.80
2018-10-04T03:22:04.895Z,85.20
2018-10-04T03:24:08.126Z,85.40
2018-10-04T03:26:11.148Z,85.40
2018-10-04T03:28:14.156Z,85.70
2018-10-04T03:30:17.141Z,85.80
2018-10-04T03:32:20.484Z,86.00
2018-10-04T03:34:24.407Z,86.30
2018-10-04T03:36:27.440Z,86.00
2018-10-04T03:38:30.535Z,85.90
2018-10-04T03:40:33.485Z,86.30
2018-10-04T03:42:36.472Z,86.30
2018-10-04T03:44:39.569Z,86.30
2018-10-04T03:46:42.628Z,86.10
2018-10-04T03:48:45.712Z,86.10
2018-10-04T03:50:48.745Z,86.20
2018-10-04T03:52:53.816Z,86.30
2018-10-04T03:54:56.855Z,86.10
2018-10-04T03:56:59.896Z,86.10
2018-10-04T03:59:03.207Z,86.20
2018-10-04T04:01:06.276Z,86.20
2018-10-04T04:03:09.272Z,86.30
2018-10-04T04:05:12.303Z,86.20
2018-10-04T04:07:15.346Z,86.10
2018-10-04T04:09:18.338Z,86.20
2018-10-04T04:11:23.008Z,86.20
2018-10-04T04:13:26.017Z,85.90
2018-10-04T04:15:29.080Z,86.10
2018-10-04T04:17:32.195Z,85.90
2018-10-04T04:19:35.231Z,86.00
2018-10-04T04:21:38.288Z,86.20
2018-10-04T04:23:45.033Z,86.20
2018-10-04T04:25:48.111Z,86.20
2018-10-04T04:27:52.543Z,86.20
2018-10-04T04:29:56.547Z,86.30
2018-10-04T04:31:59.608Z,86.20
2018-10-04T04:34:02.649Z,86.10
2018-10-04T04:36:05.635Z,86.30
2018-10-04T04:38:08.797Z,86.20
2018-10-04T04:40:11.819Z,86.40
2018-10-04T04:42:14.823Z,86.50
2018-10-04T04:44:17.847Z,86.50
2018-10-04T04:46:22.267Z,86.40
2018-10-04T04:48:25.378Z,86.70
2018-10-04T04:50:28.375Z,86.60
2018-10-04T04:52:31.440Z,86.30
2018-10-04T04:55:41.691Z,86.90
2018-10-04T04:57:44.756Z,86.80
2018-10-04T04:59:47.789Z,86.00
2018-10-04T05:01:52.412Z,86.10
2018-10-04T05:03:55.423Z,86.00
2018-10-04T05:05:58.514Z,85.60
2018-10-04T05:08:02.581Z,85.80
2018-10-04T05:10:05.583Z,85.40
2018-10-04T05:12:08.563Z,84.80
2018-10-04T05:14:11.560Z,84.30
2018-10-04T05:16:14.607Z,83.80
2018-10-04T05:18:17.615Z,83.70
2018-10-04T05:20:22.240Z,83.60
2018-10-04T05:22:25.573Z,84.20
2018-10-04T05:24:28.508Z,84.40
2018-10-04T05:26:31.484Z,84.70
2018-10-04T05:28:34.474Z,85.60
2018-10-04T05:30:37.520Z,85.60
2018-10-04T05:32:40.581Z,84.70
2018-10-04T05:34:43.641Z,84.50
2018-10-04T05:36:46.735Z,84.20
2018-10-04T05:38:49.759Z,84.00
2018-10-04T05:40:54.251Z,84.40
2018-10-04T05:42:57.260Z,84.70
2018-10-04T05:45:00.474Z,85.10
2018-10-04T05:47:03.472Z,84.60
2018-10-04T05:49:06.446Z,84.80
2018-10-04T05:51:09.475Z,85.00
2018-10-04T05:53:12.459Z,85.70
2018-10-04T05:55:15.464Z,85.50
2018-10-04T05:57:18.516Z,85.70
2018-10-04T05:59:23.039Z,86.90
2018-10-04T06:01:26.151Z,86.20
2018-10-04T06:03:29.103Z,86.80
2018-10-04T06:05:32.111Z,87.60
2018-10-04T06:07:35.454Z,87.70
2018-10-04T06:09:38.442Z,87.80
2018-10-04T06:11:41.447Z,87.90
2018-10-04T06:13:44.462Z,87.40
2018-10-04T06:15:47.427Z,87.60
2018-10-04T06:17:50.393Z,87.40
2018-10-04T06:19:53.431Z,87.20
2018-10-04T06:21:56.442Z,87.20
2018-10-04T06:23:59.766Z,86.80
2018-10-04T06:26:02.760Z,86.90
2018-10-04T06:28:05.791Z,87.10
2018-10-04T06:30:09.369Z,86.80
2018-10-04T06:32:12.352Z,85.90
2018-10-04T06:34:15.747Z,86.20
2018-10-04T06:36:18.837Z,85.80
2018-10-04T06:38:23.123Z,85.60
2018-10-04T06:40:26.170Z,85.70
2018-10-04T06:42:29.163Z,85.30
2018-10-04T06:44:32.175Z,85.00
2018-10-04T06:46:35.240Z,84.30
2018-10-04T06:48:38.241Z,84.30
2018-10-04T06:50:41.229Z,83.70
2018-10-04T06:52:44.295Z,83.60
2018-10-04T06:54:47.297Z,83.20
2018-10-04T06:56:50.284Z,83.20
2018-10-04T06:58:54.411Z,82.60
2018-10-04T07:00:57.399Z,82.50
2018-10-04T07:03:00.391Z,82.00
2018-10-04T07:05:03.448Z,82.00
2018-10-04T07:07:06.464Z,82.30
2018-10-04T07:09:10.464Z,81.60
2018-10-04T07:11:13.476Z,81.70
2018-10-04T07:13:16.474Z,82.50
2018-10-04T07:15:19.505Z,82.10
2018-10-04T07:17:23.677Z,81.20
2018-10-04T07:19:26.650Z,81.20
2018-10-04T07:21:29.715Z,80.00
2018-10-04T07:23:32.746Z,79.40
2018-10-04T07:25:35.759Z,79.40
2018-10-04T07:27:38.811Z,80.20
2018-10-04T07:29:41.859Z,79.00
2018-10-04T07:31:44.923Z,78.80
2018-10-04T07:33:47.928Z,78.40
2018-10-04T07:35:52.307Z,79.20
2018-10-04T07:37:55.688Z,78.60
2018-10-04T07:39:58.703Z,76.00
2018-10-04T07:42:01.768Z,77.70
2018-10-04T07:44:05.076Z,75.80
2018-10-04T07:46:08.157Z,75.10
2018-10-04T07:48:11.193Z,74.20
2018-10-04T07:50:14.283Z,75.00
2018-10-04T07:52:17.236Z,74.30
2018-10-04T07:54:20.254Z,73.20
2018-10-04T07:56:24.555Z,73.90
2018-10-04T07:58:27.548Z,73.40
2018-10-04T08:00:30.559Z,72.50
2018-10-04T08:02:33.548Z,74.60
2018-10-04T08:04:36.518Z,73.30
2018-10-04T08:06:40.002Z,72.70
2018-10-04T08:08:42.670Z,72.20
2018-10-04T08:10:45.748Z,71.70
2018-10-04T08:12:48.803Z,71.10
2018-10-04T08:14:53.501Z,70.70
2018-10-04T08:16:56.926Z,70.90
2018-10-04T08:18:59.934Z,70.10
2018-10-04T08:21:03.019Z,70.40
2018-10-04T08:23:06.365Z,69.00
2018-10-04T08:25:09.343Z,69.10
2018-10-04T08:27:12.354Z,69.60
2018-10-04T08:29:16.151Z,68.50
2018-10-04T08:31:19.144Z,69.40
2018-10-04T08:33:24.051Z,69.20
2018-10-04T08:35:27.070Z,70.20
2018-10-04T08:37:30.092Z,69.20
2018-10-04T08:39:33.111Z,69.50
2018-10-04T08:41:36.452Z,67.80
2018-10-04T08:43:39.481Z,69.20
2018-10-04T08:45:42.504Z,68.30
2018-10-04T08:47:45.547Z,68.50
2018-10-04T08:49:48.573Z,68.00
2018-10-04T08:51:53.223Z,68.40
2018-10-04T08:53:56.238Z,68.40
2018-10-04T08:55:59.259Z,68.00
2018-10-04T08:58:02.412Z,68.20
2018-10-04T09:00:27.817Z,69.40
2018-10-04T09:02:30.818Z,69.20
2018-10-04T09:04:33.804Z,67.60
2018-10-04T09:06:36.845Z,67.90
2018-10-04T09:08:39.837Z,68.50
2018-10-04T09:10:42.888Z,68.20
2018-10-04T09:12:45.884Z,68.00
2018-10-04T09:14:48.856Z,68.20
2018-10-04T09:16:53.314Z,68.70
2018-10-04T09:18:56.360Z,68.20
2018-10-04T09:20:59.415Z,69.20
2018-10-04T09:23:02.440Z,68.60
2018-10-04T09:25:05.530Z,68.40
2018-10-04T09:27:08.957Z,68.80
2018-10-04T09:29:12.611Z,69.00
2018-10-04T09:31:22.471Z,68.60
2018-10-04T09:33:25.885Z,69.80
2018-10-04T09:35:29.484Z,69.60
2018-10-04T09:37:32.496Z,69.60
2018-10-04T09:39:35.507Z,70.30
2018-10-04T09:41:38.543Z,70.50
2018-10-04T09:43:41.543Z,69.70
2018-10-04T09:45:44.507Z,68.70
2018-10-04T09:47:48.207Z,69.30
2018-10-04T09:49:52.534Z,69.80
2018-10-04T09:52:01.112Z,68.90
2018-10-04T09:54:04.247Z,69.20
2018-10-04T09:56:12.769Z,69.00
2018-10-04T09:58:15.802Z,68.60
2018-10-04T10:00:24.645Z,70.10
2018-10-04T10:02:33.299Z,68.60
2018-10-04T10:04:36.355Z,68.90
2018-10-04T10:06:39.370Z,69.00
2018-10-04T10:08:42.348Z,69.40
2018-10-04T10:10:45.402Z,68.50
2018-10-04T10:12:48.460Z,67.90
2018-10-04T10:14:52.666Z,68.20
2018-10-04T10:16:56.194Z,69.30
2018-10-04T10:18:59.228Z,67.80
2018-10-04T10:21:02.305Z,67.30
2018-10-04T10:23:05.305Z,66.80
2018-10-04T10:25:08.368Z,68.10
2018-10-04T10:27:11.444Z,67.70
2018-10-04T10:29:14.446Z,67.50
2018-10-04T10:31:17.500Z,66.70
2018-10-04T10:33:21.888Z,67.90
2018-10-04T10:35:25.039Z,66.40
2018-10-04T10:37:28.072Z,67.50
2018-10-04T10:39:31.107Z,67.70
2018-10-04T10:41:34.235Z,66.70
2018-10-04T10:43:37.231Z,67.40
2018-10-04T10:45:40.515Z,67.40
2018-10-04T10:47:43.476Z,67.80
2018-10-04T10:49:46.491Z,68.40
2018-10-04T10:51:49.574Z,67.70
2018-10-04T10:53:53.939Z,67.60
2018-10-04T10:55:57.044Z,68.80
2018-10-04T10:58:00.012Z,68.30
2018-10-04T11:00:03.088Z,68.50
2018-10-04T11:02:06.215Z,69.10
2018-10-04T11:04:09.228Z,67.80
2018-10-04T11:06:12.255Z,68.00
2018-10-04T11:08:15.323Z,67.90
2018-10-04T11:10:18.331Z,68.00
2018-10-04T11:12:23.131Z,67.40
2018-10-04T11:14:26.105Z,67.70
2018-10-04T11:16:29.078Z,67.10
2018-10-04T11:18:32.089Z,68.10
2018-10-04T11:20:35.090Z,67.50
2018-10-04T11:22:38.187Z,67.50
2018-10-04T11:24:41.227Z,66.90
2018-10-04T11:26:44.268Z,66.70
2018-10-04T11:28:47.231Z,67.40
2018-10-04T11:30:52.512Z,67.50
2018-10-04T11:32:55.542Z,68.00
2018-10-04T11:34:58.520Z,67.40
2018-10-04T11:37:01.535Z,68.10
2018-10-04T11:39:07.322Z,68.70
2018-10-04T11:41:10.383Z,68.70
2018-10-04T11:43:15.536Z,68.80
2018-10-04T11:45:23.017Z,68.20
2018-10-04T11:47:31.825Z,68.00
2018-10-04T11:49:35.211Z,69.30
2018-10-04T11:51:38.202Z,68.70
2018-10-04T11:53:41.234Z,69.10
2018-10-04T11:55:44.340Z,68.80
2018-10-04T11:57:47.413Z,68.30
2018-10-04T11:59:52.063Z,69.80
2018-10-04T12:01:55.485Z,68.70
2018-10-04T12:03:58.443Z,68.50
2018-10-04T12:06:01.530Z,68.70
2018-10-04T12:08:04.565Z,68.50
2018-10-04T12:10:07.625Z,67.60
2018-10-04T12:12:10.921Z,68.20
2018-10-04T12:14:14.018Z,68.10
2018-10-04T12:16:17.043Z,67.90
2018-10-04T12:18:20.099Z,68.10
2018-10-04T12:20:24.563Z,67.80
2018-10-04T12:22:27.575Z,67.40
2018-10-04T12:24:30.592Z,67.70
2018-10-04T12:26:33.662Z,68.40
2018-10-04T12:28:36.744Z,67.70
2018-10-04T12:30:39.821Z,68.90
2018-10-04T12:32:43.216Z,68.00
2018-10-04T12:34:46.238Z,69.30
2018-10-04T12:36:49.216Z,67.80
2018-10-04T12:38:53.482Z,67.60
2018-10-04T12:40:56.531Z,67.80
2018-10-04T12:42:59.564Z,67.60
2018-10-04T12:45:02.971Z,68.00
2018-10-04T12:47:05.945Z,68.30
2018-10-04T12:49:08.958Z,67.60
2018-10-04T12:51:12.069Z,68.00
2018-10-04T12:53:15.053Z,68.10
2018-10-04T12:55:18.390Z,69.00
2018-10-04T12:57:22.410Z,68.50
2018-10-04T12:59:25.424Z,67.70
2018-10-04T13:01:28.437Z,66.20
2018-10-04T13:03:31.419Z,66.40
2018-10-04T13:05:34.442Z,66.30
2018-10-04T13:07:37.457Z,65.30
2018-10-04T13:09:41.939Z,66.50
2018-10-04T13:11:45.552Z,66.40
2018-10-04T13:13:48.670Z,66.10
2018-10-04T13:15:53.560Z,66.70
2018-10-04T13:17:56.579Z,66.00
2018-10-04T13:19:59.671Z,66.20
2018-10-04T13:22:02.746Z,66.90
2018-10-04T13:24:05.740Z,66.00
2018-10-04T13:26:08.847Z,66.10
2018-10-04T13:28:11.941Z,66.20
2018-10-04T13:30:15.056Z,66.30
2018-10-04T13:32:18.133Z,66.70
2018-10-04T13:34:23.110Z,67.00
2018-10-04T13:36:26.151Z,67.60
2018-10-04T13:38:29.193Z,67.90
2018-10-04T13:40:32.209Z,67.40
2018-10-04T13:42:35.205Z,67.70
2018-10-04T13:44:38.242Z,67.70
2018-10-04T13:46:41.226Z,68.20
2018-10-04T13:48:44.408Z,67.50
2018-10-04T13:50:47.458Z,67.50
2018-10-04T13:52:52.067Z,67.90
2018-10-04T13:54:55.081Z,67.90
2018-10-04T13:56:58.151Z,67.30
2018-10-04T13:59:01.198Z,67.60
2018-10-04T14:01:04.187Z,67.60
2018-10-04T14:03:07.268Z,68.00
2018-10-04T14:05:10.282Z,67.20
2018-10-04T14:07:13.285Z,68.00
2018-10-04T14:09:16.505Z,68.00
2018-10-04T14:11:19.567Z,67.90
2018-10-04T14:13:23.995Z,67.30
2018-10-04T14:15:27.165Z,67.60
2018-10-04T14:17:30.217Z,66.90
2018-10-04T14:19:33.230Z,67.00
2018-10-04T14:21:36.235Z,66.20
2018-10-04T14:23:39.636Z,66.50
2018-10-04T14:25:42.667Z,66.60
2018-10-04T14:27:45.713Z,67.60
2018-10-04T14:29:49.019Z,67.30
2018-10-04T14:31:53.134Z,68.20
2018-10-04T14:33:56.161Z,67.60
2018-10-04T14:35:59.455Z,67.40
2018-10-04T14:38:02.691Z,67.00
2018-10-04T14:40:05.716Z,67.90
2018-10-04T14:42:08.899Z,67.80
2018-10-04T14:44:12.016Z,67.20
2018-10-04T14:46:15.095Z,65.90
2018-10-04T14:48:18.147Z,65.10
2018-10-04T14:50:22.967Z,65.00
2018-10-04T14:52:26.827Z,65.70
2018-10-04T14:54:30.056Z,65.40
2018-10-04T14:56:33.120Z,65.10
2018-10-04T14:58:36.123Z,65.60
2018-10-04T15:00:39.149Z,64.90
2018-10-04T15:02:42.175Z,64.10
2018-10-04T15:04:45.265Z,64.40
2018-10-04T15:06:48.376Z,64.20
2018-10-04T15:08:52.923Z,64.20
2018-10-04T15:10:55.973Z,64.70
2018-10-04T15:12:58.975Z,64.40
2018-10-04T15:15:02.099Z,64.90
2018-10-04T15:17:05.199Z,65.00
2018-10-04T15:19:08.220Z,64.50
2018-10-04T15:21:11.302Z,65.00
2018-10-04T15:23:14.344Z,65.30
2018-10-04T15:25:17.387Z,64.60
2018-10-04T15:27:20.447Z,64.80
2018-10-04T15:29:23.758Z,65.10
2018-10-04T15:31:26.740Z,65.40
2018-10-04T15:33:29.711Z,65.00
2018-10-04T15:35:32.716Z,65.50
2018-10-04T15:37:35.747Z,65.40
2018-10-04T15:39:38.766Z,65.30
2018-10-04T15:41:41.824Z,65.50
2018-10-04T15:43:44.955Z,66.00
2018-10-04T15:45:48.079Z,65.80
2018-10-04T15:47:52.489Z,65.80
2018-10-04T15:49:55.590Z,66.40
2018-10-04T15:51:58.627Z,66.40
2018-10-04T15:54:01.616Z,66.10
2018-10-04T15:56:04.865Z,66.00
2018-10-04T15:58:07.913Z,66.70
2018-10-04T16:00:11.085Z,66.50
2018-10-04T16:02:14.209Z,66.60
2018-10-04T16:04:17.252Z,66.70
2018-10-04T16:06:20.435Z,66.70
2018-10-04T16:08:23.521Z,67.10
2018-10-04T16:10:26.597Z,67.30
2018-10-04T16:12:29.910Z,67.40
2018-10-04T16:14:33.258Z,67.30
2018-10-04T16:16:36.300Z,67.90
2018-10-04T16:18:39.381Z,68.20
2018-10-04T16:20:42.406Z,68.20
2018-10-04T16:22:45.488Z,68.20
2018-10-04T16:24:48.617Z,68.00
2018-10-04T16:26:53.592Z,68.40
2018-10-04T16:28:56.635Z,68.70
2018-10-04T16:30:59.971Z,68.90
2018-10-04T16:33:03.103Z,69.10
2018-10-04T16:35:06.380Z,69.30
2018-10-04T16:37:09.759Z,69.50
2018-10-04T16:39:12.996Z,69.60
2018-10-04T16:41:16.370Z,69.80
2018-10-04T16:43:19.482Z,70.10
2018-10-04T16:45:23.993Z,70.20
2018-10-04T16:47:27.003Z,70.40
2018-10-04T16:49:30.100Z,70.60
2018-10-04T16:51:33.205Z,70.70
2018-10-04T16:53:37.000Z,70.70
2018-10-04T16:55:40.055Z,70.60
2018-10-04T16:57:43.088Z,71.30
2018-10-04T16:59:46.109Z,71.20
2018-10-04T17:01:49.247Z,71.00
2018-10-04T17:03:53.759Z,71.40
2018-10-04T17:05:56.767Z,72.10
2018-10-04T17:08:00.101Z,71.30
2018-10-04T17:10:03.348Z,71.90
2018-10-04T17:12:14.138Z,72.30
2018-10-04T17:14:17.691Z,71.30
2018-10-04T17:16:23.389Z,71.20
2018-10-04T17:18:26.484Z,71.80
2018-10-04T17:20:29.611Z,72.20
2018-10-04T17:22:32.699Z,72.80
2018-10-04T17:24:35.627Z,73.80
2018-10-04T17:26:38.656Z,74.20
2018-10-04T17:28:41.683Z,74.00
2018-10-04T17:30:44.769Z,73.40
2018-10-04T17:32:47.999Z,73.80
2018-10-04T17:34:54.266Z,72.80
2018-10-04T17:36:57.263Z,74.50
2018-10-04T17:39:00.314Z,73.60
2018-10-04T17:41:03.634Z,73.40
2018-10-04T17:47:11.745Z,74.10
2018-10-04T17:49:14.942Z,74.90
2018-10-04T17:51:17.940Z,73.60
2018-10-04T17:53:22.455Z,73.80
2018-10-04T17:55:25.557Z,73.30
2018-10-04T17:57:28.684Z,73.30
2018-10-04T17:59:31.745Z,73.80
2018-10-04T18:01:35.719Z,73.40
2018-10-04T18:03:39.047Z,73.60
2018-10-04T18:05:42.059Z,74.20
2018-10-04T18:07:45.209Z,74.50
2018-10-04T18:09:48.716Z,73.50
2018-10-04T18:11:53.537Z,73.90
2018-10-04T18:13:56.547Z,73.70
2018-10-04T18:15:59.885Z,73.90
2018-10-04T18:18:02.831Z,73.70
2018-10-04T18:20:05.844Z,73.90
2018-10-04T18:22:09.090Z,73.50
2018-10-04T18:24:12.052Z,73.80
2018-10-04T18:26:15.041Z,74.10
2018-10-04T18:28:19.123Z,73.30
2018-10-04T18:30:23.607Z,73.60
2018-10-04T18:32:26.656Z,73.80
2018-10-04T18:34:29.663Z,73.60
2018-10-04T18:36:32.644Z,74.10
2018-10-04T18:38:35.676Z,74.00
2018-10-04T18:40:38.676Z,74.10
2018-10-04T18:42:41.669Z,73.80
2018-10-04T18:44:44.680Z,75.00
2018-10-04T18:46:47.674Z,74.60
2018-10-04T18:48:52.297Z,74.70
2018-10-04T18:50:55.909Z,74.00
2018-10-04T18:52:58.874Z,74.10
2018-10-04T18:55:01.840Z,74.70
2018-10-04T18:57:05.026Z,75.20
2018-10-04T18:59:08.030Z,75.30
2018-10-04T19:01:11.071Z,74.80
2018-10-04T19:03:14.426Z,74.80
2018-10-04T19:05:17.431Z,74.90
2018-10-04T19:07:20.473Z,75.10
2018-10-04T19:09:24.586Z,75.00
2018-10-04T19:11:27.557Z,74.60
2018-10-04T19:13:30.546Z,75.40
2018-10-04T19:15:33.577Z,77.00
2018-10-04T19:17:36.682Z,77.00
2018-10-04T19:19:39.643Z,76.70
2018-10-04T19:21:42.713Z,76.60
2018-10-04T19:23:45.702Z,76.60
2018-10-04T19:25:48.742Z,76.10
2018-10-04T19:27:53.383Z,75.80
2018-10-04T19:29:56.442Z,76.40
2018-10-04T19:31:59.471Z,75.60
2018-10-04T19:34:02.482Z,75.80
2018-10-04T19:36:05.581Z,75.50
2018-10-04T19:38:08.665Z,75.70
2018-10-04T19:40:12.014Z,76.90
2018-10-04T19:42:15.114Z,76.70
2018-10-04T19:44:18.122Z,75.70
2018-10-04T19:46:22.602Z,76.10
2018-10-04T19:48:25.630Z,76.20
2018-10-04T19:50:28.629Z,76.90
2018-10-04T19:52:31.810Z,76.30
2018-10-04T19:54:34.879Z,76.00
2018-10-04T19:56:37.967Z,76.10
2018-10-04T19:58:41.078Z,76.20
2018-10-04T20:00:44.108Z,76.40
2018-10-04T20:02:47.163Z,77.50
2018-10-04T20:04:50.247Z,77.50
2018-10-04T20:06:54.641Z,77.30
2018-10-04T20:08:57.826Z,78.10
2018-10-04T20:11:00.863Z,77.00
2018-10-04T20:13:03.838Z,77.50
2018-10-04T20:15:06.924Z,77.80
2018-10-04T20:17:10.168Z,77.60
2018-10-04T20:19:13.146Z,77.40
2018-10-04T20:21:16.176Z,77.70
2018-10-04T20:23:19.236Z,78.70
2018-10-04T20:25:24.239Z,78.30
2018-10-04T20:27:27.277Z,78.70
2018-10-04T20:29:30.293Z,78.60
2018-10-04T20:31:33.494Z,79.90
2018-10-04T20:33:36.484Z,78.60
2018-10-04T20:35:39.560Z,78.20
2018-10-04T20:37:42.608Z,78.50
2018-10-04T20:39:45.634Z,78.20
2018-10-04T20:41:48.656Z,79.00
2018-10-04T20:43:53.345Z,78.50
2018-10-04T20:45:56.355Z,77.90
2018-10-04T20:47:59.435Z,77.90
2018-10-04T20:50:02.498Z,78.20
2018-10-04T20:52:05.535Z,77.50
2018-10-04T20:54:08.526Z,77.50
2018-10-04T20:56:11.531Z,78.70
2018-10-04T20:58:14.556Z,79.70
2018-10-04T21:00:17.813Z,78.10
2018-10-04T21:02:22.536Z,78.70
2018-10-04T21:04:25.617Z,78.30
2018-10-04T21:06:28.711Z,78.80
2018-10-04T21:08:31.890Z,78.10
2018-10-04T21:10:34.922Z,77.90
2018-10-04T21:12:37.967Z,77.70
2018-10-04T21:14:41.236Z,78.60
2018-10-04T21:16:44.244Z,78.10
2018-10-04T21:18:47.253Z,77.30
2018-10-04T21:20:50.251Z,77.50
2018-10-04T21:22:55.116Z,79.30
2018-10-04T21:24:58.042Z,78.10
2018-10-04T21:27:01.068Z,79.00
2018-10-04T21:29:04.357Z,80.30
2018-10-04T21:31:07.539Z,79.40
2018-10-04T21:33:10.549Z,78.00
2018-10-04T21:35:13.620Z,78.50
2018-10-04T21:37:16.640Z,78.50
2018-10-04T21:39:19.672Z,78.20
2018-10-04T21:41:24.362Z,77.70
2018-10-04T21:43:27.482Z,77.40
2018-10-04T21:45:30.543Z,77.60
2018-10-04T21:47:33.563Z,78.20
2018-10-04T21:49:36.575Z,78.10
2018-10-04T21:51:39.611Z,78.20
2018-10-04T21:53:42.676Z,78.50
2018-10-04T21:55:45.675Z,79.20
2018-10-04T21:57:48.719Z,78.80
2018-10-04T21:59:53.541Z,79.30
2018-10-04T22:06:29.570Z,78.80
2018-10-04T22:08:32.610Z,79.60
2018-10-04T22:10:35.645Z,79.00
2018-10-04T22:12:38.669Z,78.80
2018-10-04T22:14:41.637Z,79.00
2018-10-04T22:16:45.007Z,80.10
2018-10-04T22:18:48.015Z,80.20
2018-10-04T22:20:52.639Z,79.80
2018-10-04T22:22:55.690Z,79.90
2018-10-04T22:24:58.661Z,80.30
2018-10-04T22:27:01.937Z,80.70
2018-10-04T22:29:05.022Z,79.80
2018-10-04T22:31:08.088Z,78.70
2018-10-04T22:33:11.136Z,78.60
2018-10-04T22:35:14.135Z,79.00
2018-10-04T22:37:17.238Z,79.50
2018-10-04T22:39:20.327Z,80.30
2018-10-04T22:41:23.356Z,80.30
2018-10-04T22:43:26.438Z,80.30
2018-10-04T22:45:29.461Z,81.30
2018-10-04T22:47:32.497Z,80.70
2018-10-04T22:49:35.526Z,80.40
2018-10-04T22:51:38.619Z,80.50
2018-10-04T22:53:41.620Z,81.30
2018-10-04T22:55:44.667Z,80.70
2018-10-04T22:57:47.734Z,80.40
2018-10-04T22:59:52.689Z,80.50
2018-10-04T23:01:55.721Z,80.40
2018-10-04T23:03:58.710Z,81.30
2018-10-04T23:06:01.791Z,81.00
2018-10-04T23:08:04.958Z,81.70
2018-10-04T23:10:07.976Z,81.70
2018-10-04T23:12:10.993Z,81.10
2018-10-04T23:14:14.043Z,81.60
2018-10-04T23:16:17.043Z,80.60
2018-10-04T23:18:20.040Z,80.90
2018-10-04T23:20:24.173Z,81.40
2018-10-04T23:22:27.200Z,81.00
2018-10-04T23:24:30.227Z,80.50
2018-10-04T23:26:33.311Z,81.00
2018-10-04T23:28:36.380Z,80.70
2018-10-04T23:30:39.341Z,80.30
2018-10-04T23:32:42.350Z,79.80
2018-10-04T23:34:45.384Z,79.60
2018-10-04T23:36:48.373Z,78.90
2018-10-04T23:38:53.055Z,80.10
2018-10-04T23:40:56.071Z,79.50
2018-10-04T23:42:59.080Z,79.20
2018-10-04T23:45:02.068Z,79.60
2018-10-04T23:47:05.102Z,79.70
2018-10-04T23:49:08.110Z,79.90
2018-10-04T23:51:11.118Z,81.20
2018-10-04T23:53:14.142Z,79.70
2018-10-04T23:55:17.129Z,80.40
2018-10-04T23:57:20.099Z,79.80
2018-10-04T23:59:25.152Z,80.70
